Time;durP1;ratioP1;P1;durP2;ratioP2;P2;SDS_P1;SDS_P2;PMS_P1;PMS_P2;Temp;Humidity;BMP_temperature;BMP_pressure;BME280_temperature;BME280_humidity;BME280_pressure;Samples;Min_cycle;Max_cycle;Signal;HPM_P1;HPM_P2
2023/02/03 00:01:06;;;;;;;16.37;14.47;;;8.50;99.90;;;;;;5039328;28;20173;-78
2023/02/03 00:03:31;;;;;;;20.50;16.33;;;8.60;99.90;;;;;;5058027;28;20423;-77
2023/02/03 00:05:59;;;;;;;18.03;15.40;;;8.60;99.90;;;;;;5057464;28;20209;-78
2023/02/03 00:08:24;;;;;;;18.87;15.83;;;8.60;99.90;;;;;;5054485;28;20676;-80
2023/02/03 00:10:50;;;;;;;23.00;16.80;;;8.60;99.90;;;;;;5045907;28;20424;-77
2023/02/03 00:13:15;;;;;;;19.13;13.80;;;8.60;99.90;;;;;;5053106;28;20196;-78
2023/02/03 00:15:41;;;;;;;18.23;14.60;;;8.60;99.90;;;;;;5053624;28;20212;-78
2023/02/03 00:18:07;;;;;;;17.40;14.20;;;8.30;99.90;;;;;;5054339;28;20181;-78
2023/02/03 00:20:32;;;;;;;16.33;14.40;;;8.60;99.90;;;;;;5053009;28;20453;-78
2023/02/03 00:23:09;;;;;;;17.87;15.30;;;8.60;99.90;;;;;;5052873;28;20174;-78
2023/02/03 00:25:35;;;;;;;18.47;14.00;;;8.60;99.90;;;;;;5052652;28;20240;-78
2023/02/03 00:28:01;;;;;;;16.83;13.70;;;8.60;99.90;;;;;;5054300;28;20417;-78
2023/02/03 00:30:26;;;;;;;18.80;14.83;;;8.60;99.90;;;;;;5054062;28;20420;-78
2023/02/03 00:32:52;;;;;;;18.47;14.40;;;8.60;99.90;;;;;;5054269;28;20208;-78
2023/02/03 00:35:18;;;;;;;18.63;14.30;;;8.60;99.90;;;;;;5054103;28;20209;-77
2023/02/03 00:37:43;;;;;;;17.70;13.80;;;8.60;99.90;;;;;;5052048;28;20188;-78
2023/02/03 00:40:10;;;;;;;18.10;13.63;;;8.60;99.90;;;;;;5054356;28;20208;-78
2023/02/03 00:42:35;;;;;;;19.23;14.23;;;8.60;99.90;;;;;;5052644;28;20186;-77
2023/02/03 00:45:02;;;;;;;19.60;14.13;;;8.50;99.90;;;;;;5053108;28;20451;-76
2023/02/03 00:47:27;;;;;;;18.17;13.30;;;8.80;99.90;;;;;;5053024;28;20177;-78
2023/02/03 00:49:53;;;;;;;18.93;13.60;;;8.60;99.90;;;;;;5052386;28;20439;-76
2023/02/03 00:52:19;;;;;;;16.33;13.73;;;8.70;99.90;;;;;;5053535;28;20174;-79
2023/02/03 00:54:44;;;;;;;16.40;13.93;;;8.70;99.90;;;;;;5053845;28;20608;-78
2023/02/03 00:57:10;;;;;;;22.13;14.93;;;8.60;99.90;;;;;;5052279;28;20673;-78
2023/02/03 00:59:36;;;;;;;18.20;13.87;;;8.60;99.90;;;;;;5053059;28;20533;-77
2023/02/03 01:02:01;;;;;;;19.00;13.87;;;8.70;99.90;;;;;;5051870;28;20264;-77
2023/02/03 01:04:27;;;;;;;20.10;14.63;;;8.60;99.90;;;;;;5051944;28;20196;-79
2023/02/03 01:06:56;;;;;;;16.10;13.70;;;8.60;99.90;;;;;;5053388;28;20661;-79
2023/02/03 01:09:22;;;;;;;21.73;14.30;;;8.60;99.90;;;;;;5052806;28;20864;-76
2023/02/03 01:11:48;;;;;;;20.60;15.03;;;8.60;99.90;;;;;;5052512;28;20417;-79
2023/02/03 01:14:14;;;;;;;17.13;13.83;;;8.60;99.90;;;;;;5053501;28;20801;-79
2023/02/03 01:16:39;;;;;;;22.53;15.83;;;8.60;99.90;;;;;;5052562;28;20185;-77
2023/02/03 01:19:05;;;;;;;21.40;14.47;;;8.60;99.90;;;;;;5053674;28;20177;-78
2023/02/03 01:21:31;;;;;;;17.07;14.70;;;8.60;99.90;;;;;;5035117;28;20327;-79
2023/02/03 01:23:58;;;;;;;18.30;13.50;;;8.60;99.90;;;;;;5035528;28;20303;-77
2023/02/03 01:26:24;;;;;;;18.13;12.60;;;8.60;99.90;;;;;;5051965;28;20205;-79
2023/02/03 01:28:54;;;;;;;19.80;13.80;;;8.40;99.90;;;;;;5052740;28;20415;-78
2023/02/03 01:31:23;;;;;;;22.13;14.17;;;8.60;99.90;;;;;;5052455;28;20267;-79
2023/02/03 01:33:51;;;;;;;22.53;14.70;;;8.60;99.90;;;;;;5053619;28;20436;-79
2023/02/03 01:36:17;;;;;;;22.60;16.67;;;8.60;99.90;;;;;;5054026;28;20502;-79
2023/02/03 01:38:43;;;;;;;19.63;13.87;;;8.60;99.90;;;;;;5040806;28;20415;-79
2023/02/03 01:41:16;;;;;;;19.13;14.23;;;8.60;99.90;;;;;;5072994;28;20447;-79
2023/02/03 01:43:44;;;;;;;21.70;14.90;;;8.60;99.90;;;;;;5074415;28;20428;-79
2023/02/03 01:46:32;;;;;;;16.80;13.57;;;8.70;99.90;;;;;;5056322;28;20471;-79
2023/02/03 01:49:12;;;;;;;19.40;14.30;;;8.70;99.90;;;;;;5074296;28;20403;-80
2023/02/03 01:51:40;;;;;;;17.77;15.20;;;8.70;99.90;;;;;;5073793;28;20399;-79
2023/02/03 01:54:11;;;;;;;22.13;15.23;;;8.70;99.90;;;;;;5074296;28;20416;-79
2023/02/03 01:56:39;;;;;;;15.90;13.70;;;8.60;99.90;;;;;;5074158;28;20419;-80
2023/02/03 01:59:05;;;;;;;18.53;13.30;;;8.60;99.90;;;;;;5073269;28;20528;-80
2023/02/03 02:01:32;;;;;;;18.40;14.33;;;8.60;99.90;;;;;;5073080;28;20471;-80
2023/02/03 02:04:00;;;;;;;20.10;14.40;;;8.70;99.90;;;;;;5070511;28;20415;-80
2023/02/03 02:06:26;;;;;;;19.30;13.47;;;8.70;99.90;;;;;;5069123;28;21063;-80
2023/02/03 02:08:54;;;;;;;19.83;12.97;;;8.80;99.90;;;;;;5054166;28;20396;-80
2023/02/03 02:11:20;;;;;;;18.43;13.17;;;8.80;99.90;;;;;;5055205;28;20409;-79
2023/02/03 02:13:47;;;;;;;20.30;13.53;;;8.80;99.90;;;;;;5037420;28;20424;-80
2023/02/03 02:16:35;;;;;;;19.00;14.23;;;8.50;99.90;;;;;;5054729;28;20984;-80
2023/02/03 02:19:36;;;;;;;16.00;13.63;;;8.80;99.90;;;;;;5053922;28;20414;-80
2023/02/03 02:22:32;;;;;;;19.63;13.10;;;8.80;99.90;;;;;;5031799;28;20411;-79
2023/02/03 02:25:03;;;;;;;16.33;12.73;;;8.80;99.90;;;;;;5054822;28;20944;-79
2023/02/03 02:27:47;;;;;;;16.30;14.53;;;8.70;99.90;;;;;;5055267;28;20412;-79
2023/02/03 02:30:16;;;;;;;17.67;13.10;;;8.60;99.90;;;;;;5055586;28;20955;-79
2023/02/03 02:32:55;;;;;;;17.80;13.17;;;8.90;99.90;;;;;;5056482;28;20412;-79
2023/02/03 02:35:47;;;;;;;19.83;13.40;;;8.80;99.90;;;;;;5038486;28;20439;-80
2023/02/03 02:38:12;;;;;;;15.80;12.20;;;8.70;99.90;;;;;;5056100;28;20526;-79
2023/02/03 02:41:02;;;;;;;17.20;13.43;;;8.80;99.90;;;;;;5055208;28;20531;-79
2023/02/03 02:43:39;;;;;;;16.90;13.50;;;8.70;99.90;;;;;;5054617;28;20208;-79
2023/02/03 02:46:16;;;;;;;16.47;12.93;;;8.70;99.90;;;;;;5055694;28;21384;-79
2023/02/03 02:48:49;;;;;;;17.03;12.80;;;8.70;99.90;;;;;;5055272;28;20491;-79
2023/02/03 02:51:15;;;;;;;17.10;12.80;;;8.60;99.90;;;;;;5038380;28;20423;-79
2023/02/03 02:53:58;;;;;;;17.20;12.80;;;8.70;99.90;;;;;;5055934;28;20562;-79
2023/02/03 02:56:26;;;;;;;18.50;12.63;;;8.90;99.90;;;;;;5055107;28;20470;-79
2023/02/03 02:58:54;;;;;;;17.00;12.70;;;8.70;99.90;;;;;;5052133;28;20423;-79
2023/02/03 03:01:20;;;;;;;15.97;12.23;;;8.70;99.90;;;;;;5052096;28;20420;-79
2023/02/03 03:03:46;;;;;;;19.37;12.63;;;8.70;99.90;;;;;;5051646;28;20419;-79
2023/02/03 03:06:21;;;;;;;17.10;12.00;;;8.80;99.90;;;;;;5034953;28;20616;-79
2023/02/03 03:08:55;;;;;;;21.33;12.00;;;8.70;99.90;;;;;;5053156;28;20478;-80
2023/02/03 03:11:25;;;;;;;14.97;12.33;;;8.70;99.90;;;;;;5038524;28;20435;-78
2023/02/03 03:13:53;;;;;;;15.63;12.77;;;8.80;99.90;;;;;;5055186;28;20413;-79
2023/02/03 03:16:30;;;;;;;18.93;11.90;;;8.80;99.90;;;;;;5054962;28;20507;-77
2023/02/03 03:19:23;;;;;;;17.90;11.63;;;8.70;99.90;;;;;;5056549;28;20412;-79
2023/02/03 03:21:54;;;;;;;15.80;11.20;;;8.80;99.90;;;;;;5050440;28;20416;-79
2023/02/03 03:24:28;;;;;;;16.40;11.80;;;8.70;99.90;;;;;;5053699;28;20470;-80
2023/02/03 03:27:14;;;;;;;14.70;11.43;;;8.80;99.90;;;;;;5040029;28;20633;-78
2023/02/03 03:30:12;;;;;;;16.37;10.77;;;8.70;99.90;;;;;;5056529;28;20420;-80
2023/02/03 03:32:38;;;;;;;17.13;10.20;;;8.80;99.90;;;;;;5056164;28;20416;-80
2023/02/03 03:35:05;;;;;;;11.47;9.77;;;8.70;99.90;;;;;;5057788;28;20545;-77
2023/02/03 03:37:40;;;;;;;13.60;9.93;;;8.50;99.90;;;;;;5056072;28;20902;-77
2023/02/03 03:40:40;;;;;;;14.53;10.00;;;8.70;99.90;;;;;;5053537;28;20419;-79
2023/02/03 03:43:14;;;;;;;11.90;8.77;;;8.60;99.90;;;;;;5038293;28;20428;-78
2023/02/03 03:45:46;;;;;;;11.43;9.93;;;8.70;99.90;;;;;;5053687;28;20506;-78
2023/02/03 03:48:30;;;;;;;10.33;8.63;;;8.70;99.90;;;;;;5053454;28;20456;-78
2023/02/03 03:51:02;;;;;;;12.43;8.67;;;8.80;99.90;;;;;;5054938;28;20503;-77
2023/02/03 03:53:31;;;;;;;11.47;8.83;;;8.70;99.90;;;;;;5055631;28;20446;-78
2023/02/03 03:55:59;;;;;;;10.30;8.57;;;8.70;99.90;;;;;;5056422;28;20786;-79
2023/02/03 03:58:29;;;;;;;13.53;8.13;;;8.70;99.90;;;;;;5055455;28;20443;-80
2023/02/03 04:00:58;;;;;;;10.47;8.10;;;8.70;99.90;;;;;;5055439;28;20484;-80
2023/02/03 04:03:29;;;;;;;14.23;7.97;;;8.70;99.90;;;;;;5054305;28;20427;-78
2023/02/03 04:05:55;;;;;;;10.20;8.13;;;8.70;99.90;;;;;;5055718;28;20470;-78
2023/02/03 04:08:21;;;;;;;11.20;7.87;;;8.80;99.90;;;;;;5054853;28;20472;-77
2023/02/03 04:10:46;;;;;;;10.30;8.37;;;8.70;99.90;;;;;;5054089;28;20200;-80
2023/02/03 04:13:13;;;;;;;9.10;7.47;;;8.80;99.90;;;;;;5054694;28;20577;-80
2023/02/03 04:15:39;;;;;;;7.83;7.00;;;8.80;99.90;;;;;;5058037;28;20201;-79
2023/02/03 04:18:05;;;;;;;9.67;7.87;;;8.80;99.90;;;;;;5059528;28;20448;-78
2023/02/03 04:20:31;;;;;;;12.83;8.00;;;8.70;99.90;;;;;;5058557;28;20200;-77
2023/02/03 04:22:57;;;;;;;12.70;7.90;;;8.30;99.90;;;;;;5059768;28;20417;-80
2023/02/03 04:25:24;;;;;;;11.37;8.40;;;8.70;99.90;;;;;;5059286;28;20475;-80
2023/02/03 04:27:49;;;;;;;8.80;7.17;;;8.70;99.90;;;;;;5057631;28;20416;-80
2023/02/03 04:30:17;;;;;;;11.13;7.93;;;8.70;99.90;;;;;;5060087;28;20995;-80
2023/02/03 04:32:46;;;;;;;8.77;7.43;;;8.70;99.90;;;;;;5058983;28;20186;-78
2023/02/03 04:35:12;;;;;;;8.23;7.33;;;8.70;99.90;;;;;;5059714;28;20436;-79
2023/02/03 04:37:37;;;;;;;14.87;7.80;;;8.70;99.90;;;;;;5059483;28;20454;-80
2023/02/03 04:40:03;;;;;;;9.33;7.33;;;8.80;99.90;;;;;;5059261;28;20186;-79
2023/02/03 04:42:29;;;;;;;11.20;8.03;;;8.80;99.90;;;;;;5059361;28;20349;-77
2023/02/03 04:44:55;;;;;;;8.23;7.17;;;8.80;99.90;;;;;;5059076;28;20440;-79
2023/02/03 04:47:20;;;;;;;10.07;7.60;;;8.80;99.90;;;;;;5042032;28;20179;-79
2023/02/03 04:49:46;;;;;;;10.67;7.70;;;8.80;99.90;;;;;;5059747;28;20627;-80
2023/02/03 04:52:13;;;;;;;9.77;7.43;;;8.80;99.90;;;;;;5057698;28;20648;-80
2023/02/03 04:54:39;;;;;;;10.40;7.43;;;8.80;99.90;;;;;;5059708;28;20228;-80
2023/02/03 04:57:05;;;;;;;10.10;8.67;;;8.80;99.90;;;;;;5059785;28;20424;-80
2023/02/03 04:59:31;;;;;;;9.73;7.87;;;8.80;99.90;;;;;;5040717;28;20189;-80
2023/02/03 05:01:57;;;;;;;11.60;8.47;;;8.80;99.90;;;;;;5040906;28;20427;-80
2023/02/03 05:04:23;;;;;;;14.00;8.60;;;8.80;99.90;;;;;;5058763;28;20440;-80
2023/02/03 05:06:49;;;;;;;10.23;7.67;;;8.60;99.90;;;;;;5040879;28;20236;-79
2023/02/03 05:09:15;;;;;;;11.20;7.87;;;8.80;99.90;;;;;;5058462;28;20177;-78
2023/02/03 05:11:41;;;;;;;9.03;7.50;;;8.70;99.90;;;;;;5059523;28;20435;-80
2023/02/03 05:14:06;;;;;;;15.63;8.53;;;8.80;99.90;;;;;;5058278;28;20428;-78
2023/02/03 05:16:32;;;;;;;11.80;8.83;;;8.80;99.90;;;;;;5057560;28;20182;-78
2023/02/03 05:18:58;;;;;;;9.77;7.10;;;8.80;99.90;;;;;;5058888;28;20185;-79
2023/02/03 05:21:24;;;;;;;12.07;7.40;;;8.70;99.90;;;;;;5058540;28;20185;-80
2023/02/03 05:23:49;;;;;;;10.93;7.27;;;8.80;99.90;;;;;;5040826;28;20276;-80
2023/02/03 05:26:15;;;;;;;8.60;6.80;;;8.80;99.90;;;;;;5057738;28;20288;-80
2023/02/03 05:28:41;;;;;;;10.90;6.77;;;8.80;99.90;;;;;;5040086;28;20189;-78
2023/02/03 05:31:06;;;;;;;8.97;6.70;;;8.80;99.90;;;;;;5054682;28;20178;-78
2023/02/03 05:33:32;;;;;;;7.77;6.23;;;8.80;99.90;;;;;;5055703;28;20178;-80
2023/02/03 05:35:58;;;;;;;10.23;6.30;;;8.80;99.90;;;;;;5055864;28;20670;-80
2023/02/03 05:38:23;;;;;;;9.27;6.07;;;8.80;99.90;;;;;;5057233;28;20216;-79
2023/02/03 05:43:35;;;;;;;8.90;6.17;;;8.80;99.90;;;;;;5052692;28;20185;-78
2023/02/03 05:46:05;;;;;;;8.67;6.20;;;8.80;99.90;;;;;;5051236;28;20537;-78
2023/02/03 05:48:32;;;;;;;9.97;6.43;;;8.80;99.90;;;;;;5048679;28;20494;-78
2023/02/03 05:50:58;;;;;;;9.03;6.10;;;8.80;99.90;;;;;;5051896;28;20424;-77
2023/02/03 05:53:24;;;;;;;9.10;6.30;;;8.80;99.90;;;;;;5051379;28;20432;-77
2023/02/03 05:55:50;;;;;;;6.03;5.43;;;8.80;99.90;;;;;;5056172;28;20578;-80
2023/02/03 05:58:16;;;;;;;7.83;5.90;;;8.80;99.90;;;;;;5056674;28;20879;-80
2023/02/03 06:00:41;;;;;;;6.23;4.70;;;8.70;99.90;;;;;;5055432;28;20639;-79
2023/02/03 06:03:07;;;;;;;11.80;5.00;;;8.80;99.90;;;;;;5055012;28;20807;-80
2023/02/03 06:05:34;;;;;;;7.23;5.03;;;8.80;99.90;;;;;;5056934;28;20709;-79
2023/02/03 06:08:00;;;;;;;7.83;4.83;;;8.80;99.90;;;;;;5054447;28;20185;-79
2023/02/03 06:10:26;;;;;;;6.10;5.23;;;8.80;99.90;;;;;;5054951;28;20459;-79
2023/02/03 06:12:52;;;;;;;6.97;5.87;;;8.80;99.90;;;;;;5056751;28;20483;-79
2023/02/03 06:15:18;;;;;;;8.43;5.27;;;8.90;99.90;;;;;;5056770;28;20440;-79
2023/02/03 06:17:45;;;;;;;10.83;5.37;;;8.90;99.90;;;;;;5054909;28;20181;-80
2023/02/03 06:20:12;;;;;;;6.37;4.93;;;8.90;99.90;;;;;;5056426;28;20460;-78
2023/02/03 06:22:37;;;;;;;5.50;5.00;;;8.80;99.90;;;;;;5055092;28;20420;-80
2023/02/03 06:25:03;;;;;;;6.23;4.90;;;8.80;99.90;;;;;;5055547;28;20811;-79
2023/02/03 06:27:29;;;;;;;9.90;5.60;;;8.80;99.90;;;;;;5056153;28;20372;-77
2023/02/03 06:29:55;;;;;;;7.20;4.50;;;8.80;99.90;;;;;;5056520;28;20737;-78
2023/02/03 06:32:20;;;;;;;9.00;5.47;;;8.80;99.90;;;;;;5058006;28;20177;-79
2023/02/03 06:34:46;;;;;;;9.87;6.27;;;8.80;99.90;;;;;;5056762;28;20669;-80
2023/02/03 06:37:12;;;;;;;9.67;5.50;;;8.80;99.90;;;;;;5055475;28;20185;-79
2023/02/03 06:39:37;;;;;;;8.30;6.10;;;8.80;99.90;;;;;;5055309;28;20232;-78
2023/02/03 06:42:03;;;;;;;7.97;5.53;;;8.90;99.90;;;;;;5053573;28;20190;-77
2023/02/03 06:44:29;;;;;;;8.20;5.53;;;8.90;99.90;;;;;;5055575;28;20359;-79
2023/02/03 06:46:55;;;;;;;7.67;4.70;;;8.90;99.90;;;;;;5056208;28;20579;-79
2023/02/03 06:49:20;;;;;;;7.60;4.63;;;8.90;99.90;;;;;;5057765;28;20178;-77
2023/02/03 06:51:46;;;;;;;7.37;4.73;;;8.90;99.90;;;;;;5054398;28;20495;-79
2023/02/03 06:54:13;;;;;;;4.97;4.43;;;8.90;99.90;;;;;;5037139;28;20296;-78
2023/02/03 06:56:38;;;;;;;11.27;5.27;;;8.90;99.90;;;;;;5055000;28;20182;-80
2023/02/03 06:59:04;;;;;;;6.07;4.77;;;8.80;99.90;;;;;;5056747;28;20424;-79
2023/02/03 07:01:30;;;;;;;10.97;5.33;;;8.90;99.90;;;;;;5057118;28;20182;-79
2023/02/03 07:03:57;;;;;;;4.93;4.20;;;8.80;99.90;;;;;;5056005;28;20974;-78
2023/02/03 07:06:28;;;;;;;8.47;4.80;;;8.90;99.90;;;;;;5057667;28;20301;-79
2023/02/03 07:08:57;;;;;;;7.00;5.00;;;8.90;99.90;;;;;;5056590;28;20424;-77
2023/02/03 07:11:24;;;;;;;6.90;5.13;;;8.90;99.90;;;;;;5057016;28;20467;-79
2023/02/03 07:13:50;;;;;;;10.07;5.80;;;8.80;99.90;;;;;;5056466;28;20431;-79
2023/02/03 07:16:16;;;;;;;8.50;4.77;;;8.80;99.90;;;;;;5056726;28;20420;-79
2023/02/03 07:18:41;;;;;;;5.73;4.70;;;8.90;99.90;;;;;;5057361;28;20519;-79
2023/02/03 07:21:07;;;;;;;8.80;6.33;;;8.90;99.90;;;;;;5055486;28;20575;-79
2023/02/03 07:23:33;;;;;;;7.73;5.40;;;8.80;99.90;;;;;;5053634;28;20208;-78
2023/02/03 07:26:00;;;;;;;10.17;5.93;;;8.80;99.90;;;;;;5053061;28;20217;-79
2023/02/03 07:28:26;;;;;;;7.60;6.70;;;8.80;99.90;;;;;;5057027;28;20189;-77
2023/02/03 07:30:51;;;;;;;8.50;5.50;;;8.80;99.90;;;;;;5056397;28;20487;-79
2023/02/03 07:33:17;;;;;;;11.83;6.50;;;8.80;99.90;;;;;;5056417;28;20571;-79
2023/02/03 07:35:42;;;;;;;7.13;5.90;;;8.90;99.90;;;;;;5054357;28;20206;-79
2023/02/03 07:38:08;;;;;;;6.57;5.87;;;9.00;99.90;;;;;;5054207;28;20177;-79
2023/02/03 07:40:34;;;;;;;8.20;6.80;;;8.80;99.90;;;;;;5054393;28;20189;-79
2023/02/03 07:42:59;;;;;;;8.63;6.80;;;8.80;99.90;;;;;;5055572;28;20182;-78
2023/02/03 07:45:25;;;;;;;10.10;6.93;;;8.80;99.90;;;;;;5053918;28;20210;-76
2023/02/03 07:47:51;;;;;;;10.53;8.03;;;8.80;99.90;;;;;;5056044;28;20170;-79
2023/02/03 07:50:17;;;;;;;13.30;6.87;;;8.80;99.90;;;;;;5057377;28;20241;-79
2023/02/03 07:52:43;;;;;;;11.10;7.23;;;8.80;99.90;;;;;;5059661;28;20491;-77
2023/02/03 07:55:09;;;;;;;7.90;6.70;;;8.80;99.90;;;;;;5057556;28;20968;-79
2023/02/03 07:57:35;;;;;;;8.33;5.77;;;8.80;99.90;;;;;;5059146;28;20180;-79
2023/02/03 08:00:02;;;;;;;6.30;5.70;;;8.80;99.90;;;;;;5065228;28;20428;-79
2023/02/03 08:02:28;;;;;;;10.23;5.80;;;8.90;99.90;;;;;;5055499;28;20910;-79
2023/02/03 08:04:56;;;;;;;11.07;5.87;;;8.90;99.90;;;;;;5040617;28;20526;-77
2023/02/03 08:07:22;;;;;;;8.23;5.60;;;8.90;99.90;;;;;;5040585;28;20246;-79
2023/02/03 08:09:48;;;;;;;9.40;5.20;;;8.90;99.90;;;;;;5043841;28;20724;-78
2023/02/03 08:12:14;;;;;;;7.17;6.50;;;9.00;99.90;;;;;;5058650;28;20174;-79
2023/02/03 08:14:39;;;;;;;8.67;6.70;;;8.90;99.90;;;;;;5059885;28;20670;-79
2023/02/03 08:17:05;;;;;;;7.27;6.33;;;8.90;99.90;;;;;;5059306;28;20435;-79
2023/02/03 08:19:31;;;;;;;6.40;5.80;;;8.90;99.90;;;;;;5058225;28;20178;-77
2023/02/03 08:21:58;;;;;;;8.20;6.30;;;8.90;99.90;;;;;;5058293;28;20186;-79
2023/02/03 08:24:23;;;;;;;7.83;5.87;;;8.90;99.90;;;;;;5057469;28;20209;-79
2023/02/03 08:26:49;;;;;;;8.57;6.00;;;8.90;99.90;;;;;;5058917;28;20838;-79
2023/02/03 08:29:15;;;;;;;8.67;5.77;;;8.90;99.90;;;;;;5058888;28;20177;-76
2023/02/03 08:31:41;;;;;;;7.83;6.00;;;8.90;99.90;;;;;;5042227;28;20178;-77
2023/02/03 08:34:06;;;;;;;8.80;6.60;;;9.00;99.90;;;;;;5059224;28;20193;-78
2023/02/03 08:36:32;;;;;;;12.00;6.60;;;8.90;99.90;;;;;;5059662;28;20423;-79
2023/02/03 08:38:58;;;;;;;8.73;6.40;;;8.90;99.90;;;;;;5040597;28;20548;-78
2023/02/03 08:41:23;;;;;;;8.20;6.53;;;8.90;99.90;;;;;;5060295;28;20514;-78
2023/02/03 08:43:49;;;;;;;6.33;5.73;;;9.00;99.90;;;;;;5058629;28;20182;-78
2023/02/03 08:46:15;;;;;;;10.03;6.33;;;9.00;99.90;;;;;;5058718;28;20202;-78
2023/02/03 08:48:40;;;;;;;9.87;5.90;;;9.00;99.90;;;;;;5041017;28;20530;-79
2023/02/03 08:51:11;;;;;;;10.57;6.70;;;8.90;99.90;;;;;;5059565;28;20519;-79
2023/02/03 08:53:37;;;;;;;9.77;6.03;;;8.90;99.90;;;;;;5058668;28;20182;-78
2023/02/03 08:56:08;;;;;;;7.23;6.33;;;8.90;99.90;;;;;;5058208;28;20474;-79
2023/02/03 08:58:34;;;;;;;9.87;6.67;;;8.90;99.90;;;;;;5059065;28;20439;-79
2023/02/03 09:01:12;;;;;;;12.00;5.97;;;8.90;99.90;;;;;;5057872;28;20432;-78
2023/02/03 09:03:38;;;;;;;6.73;5.40;;;8.90;99.90;;;;;;5057271;28;20424;-77
2023/02/03 09:06:05;;;;;;;11.50;6.60;;;8.90;99.90;;;;;;5059487;28;20556;-79
2023/02/03 09:08:30;;;;;;;7.47;5.60;;;8.90;99.90;;;;;;5058108;28;20192;-79
2023/02/03 09:10:56;;;;;;;11.10;7.93;;;8.80;99.90;;;;;;5056171;28;20408;-79
2023/02/03 09:13:22;;;;;;;7.10;6.07;;;9.00;99.90;;;;;;5055292;28;20208;-78
2023/02/03 09:15:48;;;;;;;7.50;6.07;;;8.90;99.90;;;;;;5054599;28;20197;-78
2023/02/03 09:18:13;;;;;;;5.87;5.10;;;9.00;99.90;;;;;;5053673;28;20416;-79
2023/02/03 09:20:39;;;;;;;10.20;7.10;;;9.00;99.90;;;;;;5054776;28;20516;-78
2023/02/03 09:23:05;;;;;;;7.97;5.87;;;9.00;99.90;;;;;;5053961;28;20181;-79
2023/02/03 09:25:32;;;;;;;10.17;6.07;;;8.90;99.90;;;;;;5054700;28;20212;-79
2023/02/03 09:27:59;;;;;;;9.70;5.83;;;8.90;99.90;;;;;;5053755;28;20170;-78
2023/02/03 09:30:25;;;;;;;9.83;5.73;;;9.00;99.90;;;;;;5055214;28;20912;-78
2023/02/03 09:32:55;;;;;;;6.80;5.70;;;9.00;99.90;;;;;;5054584;28;20417;-79
2023/02/03 09:35:21;;;;;;;8.70;5.77;;;9.00;99.90;;;;;;5056912;28;20194;-78
2023/02/03 09:37:47;;;;;;;7.07;6.10;;;9.00;99.90;;;;;;5056040;28;20527;-77
2023/02/03 09:40:21;;;;;;;9.40;6.47;;;9.00;99.90;;;;;;5054105;28;20423;-78
2023/02/03 09:43:08;;;;;;;8.50;6.80;;;9.00;99.90;;;;;;5036302;28;20447;-79
2023/02/03 09:45:33;;;;;;;9.27;6.13;;;9.00;99.90;;;;;;5053780;28;20459;-80
2023/02/03 09:48:08;;;;;;;9.50;6.73;;;9.00;99.90;;;;;;5053849;28;20788;-78
2023/02/03 09:50:36;;;;;;;9.80;8.10;;;9.00;99.90;;;;;;5053350;28;20200;-78
2023/02/03 09:53:10;;;;;;;9.13;6.93;;;9.00;99.90;;;;;;5053736;28;20419;-79
2023/02/03 09:55:40;;;;;;;9.10;7.43;;;9.10;99.90;;;;;;5052340;28;20952;-79
2023/02/03 09:58:15;;;;;;;8.53;7.67;;;9.10;99.90;;;;;;5052140;28;20499;-78
2023/02/03 10:00:41;;;;;;;8.37;7.17;;;9.10;99.90;;;;;;5052294;28;20523;-78
2023/02/03 10:03:24;;;;;;;10.83;7.50;;;9.10;99.90;;;;;;5052067;28;20499;-78
2023/02/03 10:06:11;;;;;;;11.50;7.43;;;9.00;99.90;;;;;;5053359;28;20217;-78
2023/02/03 10:09:03;;;;;;;7.90;7.10;;;9.10;99.90;;;;;;5051936;28;20416;-79
2023/02/03 10:11:51;;;;;;;9.13;8.23;;;9.20;99.90;;;;;;5030013;28;20439;-79
2023/02/03 10:14:19;;;;;;;9.67;6.73;;;9.10;99.90;;;;;;5051565;28;20960;-78
2023/02/03 10:17:09;;;;;;;8.73;7.37;;;9.10;99.90;;;;;;5051936;28;20507;-78
2023/02/03 10:20:01;;;;;;;8.97;7.57;;;9.20;99.90;;;;;;5053025;28;20463;-77
2023/02/03 10:22:32;;;;;;;8.57;7.00;;;9.10;99.90;;;;;;5051778;28;20477;-79
2023/02/03 10:25:41;;;;;;;8.27;7.13;;;9.10;99.90;;;;;;5034929;28;20969;-79
2023/02/03 10:28:18;;;;;;;9.63;8.13;;;9.10;99.90;;;;;;5043650;28;20479;-78
2023/02/03 10:31:03;;;;;;;11.23;6.60;;;9.10;99.90;;;;;;5051587;28;20420;-79
2023/02/03 10:33:30;;;;;;;11.53;7.03;;;9.10;99.90;;;;;;5051105;28;20420;-79
2023/02/03 10:36:18;;;;;;;9.67;6.93;;;9.10;99.90;;;;;;5051867;28;20438;-79
2023/02/03 10:38:47;;;;;;;7.33;6.40;;;9.10;99.90;;;;;;5050718;28;20470;-77
2023/02/03 10:41:15;;;;;;;13.13;7.17;;;9.10;99.90;;;;;;5052966;28;20412;-79
2023/02/03 10:43:47;;;;;;;7.40;5.87;;;9.10;99.90;;;;;;5051349;28;20416;-77
2023/02/03 10:46:17;;;;;;;10.70;6.87;;;9.10;99.90;;;;;;5051763;28;20456;-77
2023/02/03 10:48:43;;;;;;;12.60;6.70;;;9.10;99.90;;;;;;5034930;28;20421;-78
2023/02/03 10:51:33;;;;;;;12.70;6.17;;;9.20;99.90;;;;;;5052240;28;20420;-79
2023/02/03 10:54:02;;;;;;;9.50;5.90;;;9.10;99.90;;;;;;5051266;28;20185;-79
2023/02/03 10:56:38;;;;;;;9.93;6.27;;;9.10;99.90;;;;;;5051596;28;20447;-78
2023/02/03 10:59:06;;;;;;;8.03;5.30;;;9.10;99.90;;;;;;5051900;28;20510;-78
2023/02/03 11:01:42;;;;;;;13.97;6.10;;;9.10;99.90;;;;;;5051247;28;20495;-78
2023/02/03 11:04:32;;;;;;;9.90;7.20;;;9.10;99.90;;;;;;5051041;28;20440;-79
2023/02/03 11:07:05;;;;;;;10.00;6.50;;;9.10;99.90;;;;;;5051970;28;20463;-77
2023/02/03 11:09:36;;;;;;;10.97;7.23;;;9.10;99.90;;;;;;5052004;28;20495;-79
2023/02/03 11:12:05;;;;;;;10.33;7.67;;;9.10;99.90;;;;;;5052120;28;20412;-79
2023/02/03 11:14:37;;;;;;;9.17;7.00;;;9.10;99.90;;;;;;5051111;28;20428;-77
2023/02/03 11:17:16;;;;;;;12.27;8.33;;;9.20;99.90;;;;;;5034212;28;20805;-77
2023/02/03 11:19:47;;;;;;;13.40;8.27;;;9.20;99.90;;;;;;5050904;28;20449;-78
2023/02/03 11:22:27;;;;;;;13.73;9.03;;;9.20;99.90;;;;;;5054868;28;20446;-78
2023/02/03 11:24:53;;;;;;;13.03;8.83;;;9.30;99.90;;;;;;5056015;28;20435;-78
2023/02/03 11:27:21;;;;;;;15.70;9.57;;;9.30;99.90;;;;;;5038260;28;20975;-76
2023/02/03 11:29:50;;;;;;;10.43;8.60;;;9.30;99.90;;;;;;5056019;28;20480;-77
2023/02/03 11:32:33;;;;;;;13.10;8.00;;;9.30;99.90;;;;;;5056120;28;20416;-76
2023/02/03 11:35:14;;;;;;;11.83;9.90;;;9.30;99.90;;;;;;5054816;28;20519;-79
2023/02/03 11:37:41;;;;;;;12.67;9.90;;;9.30;99.90;;;;;;5056503;28;20423;-77
2023/02/03 11:40:07;;;;;;;13.27;9.43;;;9.30;99.90;;;;;;5057453;28;20416;-79
2023/02/03 11:42:39;;;;;;;12.40;9.80;;;9.30;99.90;;;;;;5064790;28;20958;-78
2023/02/03 11:45:14;;;;;;;16.50;10.20;;;9.40;99.90;;;;;;5057268;28;20674;-78
2023/02/03 11:47:50;;;;;;;13.53;11.40;;;9.40;99.90;;;;;;5054725;28;21010;-79
2023/02/03 11:50:49;;;;;;;12.67;11.40;;;9.30;99.90;;;;;;5055707;28;20423;-78
2023/02/03 11:53:50;;;;;;;13.87;10.27;;;9.30;99.90;;;;;;5072906;28;20463;-77
2023/02/03 11:56:31;;;;;;;16.47;11.10;;;9.30;99.90;;;;;;5058024;28;20892;-78
2023/02/03 11:59:05;;;;;;;16.67;10.20;;;9.40;99.90;;;;;;5071174;28;20456;-78
2023/02/03 12:02:12;;;;;;;14.43;11.47;;;9.30;99.90;;;;;;5072393;28;20984;-79
2023/02/03 12:04:56;;;;;;;15.33;10.40;;;9.40;99.90;;;;;;5056787;28;20442;-77
2023/02/03 12:07:56;;;;;;;12.83;10.87;;;9.40;99.90;;;;;;5055636;28;20464;-79
2023/02/03 12:10:24;;;;;;;15.07;9.77;;;9.40;99.90;;;;;;5071947;28;20450;-78
2023/02/03 12:12:53;;;;;;;14.30;9.70;;;9.40;99.90;;;;;;5056585;28;20415;-79
2023/02/03 12:15:33;;;;;;;9.83;8.83;;;9.40;99.90;;;;;;5056020;28;20906;-79
2023/02/03 12:18:09;;;;;;;13.70;9.53;;;9.40;99.90;;;;;;5054943;28;20416;-78
2023/02/03 12:20:43;;;;;;;12.30;10.10;;;9.40;99.90;;;;;;5072688;28;20450;-79
2023/02/03 12:23:15;;;;;;;14.50;9.00;;;9.40;99.90;;;;;;5054788;28;20412;-79
2023/02/03 12:26:02;;;;;;;11.70;8.67;;;9.50;99.90;;;;;;5056220;28;20503;-79
2023/02/03 12:28:40;;;;;;;14.00;8.60;;;9.50;99.90;;;;;;5071846;28;20426;-78
2023/02/03 12:31:17;;;;;;;11.83;8.47;;;9.50;99.90;;;;;;5054465;28;20416;-79
2023/02/03 12:33:51;;;;;;;9.90;7.37;;;9.40;99.90;;;;;;5055578;28;20506;-79
2023/02/03 12:36:23;;;;;;;12.10;8.33;;;9.50;99.90;;;;;;5056120;28;20424;-77
2023/02/03 12:38:51;;;;;;;12.87;7.03;;;9.50;99.90;;;;;;5055328;28;20416;-76
2023/02/03 12:41:32;;;;;;;12.13;8.57;;;9.50;99.90;;;;;;5055416;28;20416;-79
2023/02/03 12:44:03;;;;;;;8.80;7.33;;;9.40;99.90;;;;;;5055454;28;20428;-78
2023/02/03 12:46:31;;;;;;;14.87;8.30;;;9.50;99.90;;;;;;5055451;28;20471;-79
2023/02/03 12:49:22;;;;;;;11.50;7.70;;;9.40;99.90;;;;;;5055627;28;20416;-78
2023/02/03 12:51:54;;;;;;;9.87;6.33;;;9.50;99.90;;;;;;5056228;28;20416;-78
2023/02/03 12:54:34;;;;;;;10.10;6.50;;;9.50;99.90;;;;;;5055551;28;20446;-78
2023/02/03 12:57:26;;;;;;;6.67;5.80;;;9.50;99.90;;;;;;5054321;28;20423;-77
2023/02/03 13:00:18;;;;;;;8.10;6.00;;;9.50;99.90;;;;;;5051523;28;20456;-77
2023/02/03 13:03:12;;;;;;;10.07;5.30;;;9.60;99.90;;;;;;5055319;28;20419;-79
2023/02/03 13:05:43;;;;;;;10.67;5.73;;;9.50;99.90;;;;;;5046440;28;20468;-77
2023/02/03 13:08:28;;;;;;;11.90;5.50;;;9.60;99.90;;;;;;5054559;28;20451;-79